Nearby METAR Reports

 

KPBH - Phillips, Wisconsin, USA
Distance from station: SE 13mi, 21km
Updated: 08/22/2017 9:15pm
Overcast
Overcast
 Wind from calm
Wind: Calm
Temperature: 59°F , 15°C
Dew Point: 52°F , 11°C
Humidity: 77%
Barometer: 29.97 inHg , 1014.9 hPa
Clouds: Overcast
Visibility: 10 miles , 16 km
Cloud details: Partly cloudy 6500 ft
Mostly cloudy 7500 ft
Overcast 8500 ft
2017/08/23 02:15 KPBH 230215Z AUTO 00000KT 10SM SCT065 BKN075 OVC085 15/11 A2997 RMK AO2 T01480113
KRCX - Ladysmith/Rusk, Wisconsin, USA
Distance from station: SW 29mi, 46km
Updated: 08/22/2017 8:55pm
Overcast
Overcast
 Wind from W
Wind: W 6 mph , 9 km/h
Temperature: 63°F , 17°C
Dew Point: 52°F , 11°C
Humidity: 68%
Barometer: 30.00 inHg , 1015.9 hPa
Clouds: Overcast
Visibility: 10 miles , 16 km
Cloud details: Overcast 8500 ft
2017/08/23 01:55 KRCX 230155Z AUTO 27005KT 10SM OVC085 17/11 A3000 RMK AO2 T01660105
 
KD25 - Manitowish Water, Wisconsin, USA
Distance from station: ENE 41mi, 66km
Updated: 08/22/2017 8:55pm
Mostly cloudy
Mostly cloudy
 Wind from NW
Wind: NW 6 mph , 9 km/h
Temperature: 55°F , 13°C
Dew Point: 55°F , 13°C
Humidity: 100%
Barometer: 29.95 inHg , 1014.2 hPa
Clouds: Mostly cloudy
Visibility: 10 miles , 16 km
Cloud details: Partly cloudy 2800 ft
Partly cloudy 3400 ft
Mostly cloudy 9000 ft
2017/08/23 01:55 KD25 230155Z AUTO 31005KT 10SM SCT028 SCT034 BKN090 13/13 A2995 RMK AO2 P0003 T01330133
KHYR - Hayward, Wisconsin, USA
Distance from station: WNW 42mi, 68km
Updated: 08/22/2017 8:53pm
Overcast
Overcast
 Wind from calm
Wind: Calm
Temperature: 61°F , 16°C
Dew Point: 54°F , 12°C
Humidity: 77%
Barometer: 29.99 inHg , 1015.6 hPa
Clouds: Overcast
Visibility: 10 miles , 16 km
Cloud details: Few Clouds 6500 ft
Overcast 8500 ft
2017/08/23 01:53 KHYR 230153Z AUTO 00000KT 10SM FEW065 OVC085 16/12 A2999 RMK AO2 SLP155 T01560117
 
KARV - Minocqua/Woodruf, Wisconsin, USA
Distance from station: E 44mi, 71km
Updated: 08/22/2017 8:55pm
Partly cloudy
Partly cloudy
 Wind from NW
Wind: NW 8 mph , 13 km/h
Temperature: 63°F , 17°C
Dew Point: 54°F , 12°C
Humidity: 73%
Barometer: 29.94 inHg , 1013.9 hPa
Clouds: Partly cloudy
Visibility: 10 miles , 16 km
Cloud details: Partly cloudy 8500 ft
2017/08/23 01:55 KARV 230155Z AUTO 32007KT 10SM SCT085 17/12 A2994 RMK AO2 T01660115
KTKV - Tomahawk Regnl, Wisconsin, USA
Distance from station: ESE 46mi, 74km
Updated: 08/22/2017 8:55pm

 Wind from W
Wind: W 5 mph , 7 km/h
Temperature: 55°F , 13°C
Dew Point: 50°F , 10°C
Humidity: 82%
Barometer: 29.97 inHg , 1014.9 hPa
Visibility: 10 miles , 16 km
2017/08/23 01:55 KTKV 230155Z AUTO 28004KT 10SM 13/10 A2997 RMK AO2 T01320095